Terminal Aerodrome Forecast
Issued by NWS Houston/Galveston, TX

Home | Current Version | Previous Version | Text Only | Print | Product List | Glossary On
Versions: 1 2 3 4 5 6 7 8 9 10 11 12 13 14 15 16 17 18 19 20 21 22 23 24 25 26 27 28 29 30 31 32 33 34 35 36 37 38 39 40 41 42
000
FTUS44 KHGX 281140
TAFGLS
TAF
KGLS 281140Z 2812/0112 15012KT 4SM BR BKN003 OVC015
      TEMPO 2812/2815 1SM BR OVC002
     FM281700 15013KT P6SM SCT020
     FM010100 16013KT 6SM BR SCT007 BKN012
     FM010900 17011KT 3SM BR BKN007=

USA.gov is the U.S. government's official web portal to all federal, state and local government web resources and services.